sensor_id;sensor_type;location;lat;lon;timestamp;pressure;altitude;pressure_sealevel;temperature;humidity
38227;BME280;24026;49.446;8.576;2022-07-18T00:00:39;101228.25;;;26.32;27.11
38227;BME280;24026;49.446;8.576;2022-07-18T00:03:00;101229.69;;;26.29;26.91
38227;BME280;24026;49.446;8.576;2022-07-18T00:05:20;101235.13;;;26.29;26.99
38227;BME280;24026;49.446;8.576;2022-07-18T00:07:40;101227.28;;;26.28;26.95
38227;BME280;24026;49.446;8.576;2022-07-18T00:10:00;101229.22;;;26.27;26.86
38227;BME280;24026;49.446;8.576;2022-07-18T00:12:21;101221.38;;;26.25;27.01
38227;BME280;24026;49.446;8.576;2022-07-18T00:14:41;101226.03;;;26.25;26.83
38227;BME280;24026;49.446;8.576;2022-07-18T00:17:02;101228.28;;;26.23;26.84
38227;BME280;24026;49.446;8.576;2022-07-18T00:19:23;101228.28;;;26.23;26.94
38227;BME280;24026;49.446;8.576;2022-07-18T00:21:43;101236.47;;;26.23;27.01
38227;BME280;24026;49.446;8.576;2022-07-18T00:24:04;101241.41;;;26.21;26.96
38227;BME280;24026;49.446;8.576;2022-07-18T00:26:24;101244.81;;;26.18;27.25
38227;BME280;24026;49.446;8.576;2022-07-18T00:28:44;101245.59;;;26.18;27.02
38227;BME280;24026;49.446;8.576;2022-07-18T00:31:04;101242.09;;;26.18;26.95
38227;BME280;24026;49.446;8.576;2022-07-18T00:33:25;101238.88;;;26.16;27.04
38227;BME280;24026;49.446;8.576;2022-07-18T00:35:45;101242.41;;;26.16;27.10
38227;BME280;24026;49.446;8.576;2022-07-18T00:38:05;101240.34;;;26.13;27.01
38227;BME280;24026;49.446;8.576;2022-07-18T00:40:25;101246.59;;;26.14;26.94
38227;BME280;24026;49.446;8.576;2022-07-18T00:42:46;101245.31;;;26.11;27.20
38227;BME280;24026;49.446;8.576;2022-07-18T00:45:06;101241.00;;;26.10;27.11
38227;BME280;24026;49.446;8.576;2022-07-18T00:47:27;101238.59;;;26.09;27.13
38227;BME280;24026;49.446;8.576;2022-07-18T00:49:47;101236.19;;;26.07;27.20
38227;BME280;24026;49.446;8.576;2022-07-18T00:52:07;101243.56;;;26.06;27.11
38227;BME280;24026;49.446;8.576;2022-07-18T00:54:27;101239.25;;;26.05;27.06
38227;BME280;24026;49.446;8.576;2022-07-18T00:56:48;101243.44;;;26.03;27.12
38227;BME280;24026;49.446;8.576;2022-07-18T00:59:10;101243.44;;;26.03;27.01
38227;BME280;24026;49.446;8.576;2022-07-18T01:01:30;101238.31;;;26.01;27.20
38227;BME280;24026;49.446;8.576;2022-07-18T01:04:02;101239.09;;;26.02;26.96
38227;BME280;24026;49.446;8.576;2022-07-18T01:06:23;101241.34;;;26.00;27.19
38227;BME280;24026;49.446;8.576;2022-07-18T01:08:43;101238.63;;;26.00;26.97
38227;BME280;24026;49.446;8.576;2022-07-18T01:11:04;101241.69;;;25.98;27.04
38227;BME280;24026;49.446;8.576;2022-07-18T01:13:24;101232.22;;;25.96;26.95
38227;BME280;24026;49.446;8.576;2022-07-18T01:15:45;101239.59;;;25.95;27.08
38227;BME280;24026;49.446;8.576;2022-07-18T01:18:05;101222.78;;;25.93;27.06
38227;BME280;24026;49.446;8.576;2022-07-18T01:20:29;101232.38;;;25.91;27.30
38227;BME280;24026;49.446;8.576;2022-07-18T01:22:50;101235.41;;;25.89;27.07
38227;BME280;24026;49.446;8.576;2022-07-18T01:25:10;101232.38;;;25.91;27.26
38227;BME280;24026;49.446;8.576;2022-07-18T01:27:31;101236.25;;;25.89;27.17
38227;BME280;24026;49.446;8.576;2022-07-18T01:29:51;101236.56;;;25.88;27.27
38227;BME280;24026;49.446;8.576;2022-07-18T01:32:12;101240.72;;;25.85;27.13
38227;BME280;24026;49.446;8.576;2022-07-18T01:34:33;101240.72;;;25.85;27.15
38227;BME280;24026;49.446;8.576;2022-07-18T01:36:53;101250.81;;;25.85;27.14
38227;BME280;24026;49.446;8.576;2022-07-18T01:39:13;101238.31;;;25.84;27.18
38227;BME280;24026;49.446;8.576;2022-07-18T01:41:34;101247.63;;;25.83;27.12
38227;BME280;24026;49.446;8.576;2022-07-18T01:43:54;101251.78;;;25.80;27.15
38227;BME280;24026;49.446;8.576;2022-07-18T01:46:14;101246.34;;;25.80;27.44
38227;BME280;24026;49.446;8.576;2022-07-18T01:48:36;101248.59;;;25.78;27.52
38227;BME280;24026;49.446;8.576;2022-07-18T01:50:56;101254.81;;;25.79;27.48
38227;BME280;24026;49.446;8.576;2022-07-18T01:53:16;101249.69;;;25.77;27.25
38227;BME280;24026;49.446;8.576;2022-07-18T01:55:37;101252.75;;;25.76;27.37
38227;BME280;24026;49.446;8.576;2022-07-18T01:57:57;101237.56;;;25.75;27.54
38227;BME280;24026;49.446;8.576;2022-07-18T02:00:17;101244.91;;;25.74;27.29
38227;BME280;24026;49.446;8.576;2022-07-18T02:02:38;101247.16;;;25.72;27.51
38227;BME280;24026;49.446;8.576;2022-07-18T02:04:59;101246.38;;;25.72;27.52
38227;BME280;24026;49.446;8.576;2022-07-18T02:07:19;101238.53;;;25.70;27.40
38227;BME280;24026;49.446;8.576;2022-07-18T02:09:39;101238.84;;;25.68;27.39
38227;BME280;24026;49.446;8.576;2022-07-18T02:12:00;101236.91;;;25.69;27.26
38227;BME280;24026;49.446;8.576;2022-07-18T02:14:20;101242.69;;;25.67;27.32
38227;BME280;24026;49.446;8.576;2022-07-18T02:16:40;101237.22;;;25.67;27.33
38227;BME280;24026;49.446;8.576;2022-07-18T02:19:00;101240.28;;;25.66;27.66
38227;BME280;24026;49.446;8.576;2022-07-18T02:21:21;101243.34;;;25.64;27.50
38227;BME280;24026;49.446;8.576;2022-07-18T02:23:41;101233.56;;;25.63;27.62
38227;BME280;24026;49.446;8.576;2022-07-18T02:26:02;101231.97;;;25.62;27.71
38227;BME280;24026;49.446;8.576;2022-07-18T02:28:23;101238.53;;;25.61;27.76
38227;BME280;24026;49.446;8.576;2022-07-18T02:30:43;101232.59;;;25.59;27.65
38227;BME280;24026;49.446;8.576;2022-07-18T02:33:03;101228.78;;;25.60;27.55
38227;BME280;24026;49.446;8.576;2022-07-18T02:35:24;101234.22;;;25.60;27.68
38227;BME280;24026;49.446;8.576;2022-07-18T02:37:44;101232.13;;;25.57;27.67
38227;BME280;24026;49.446;8.576;2022-07-18T02:40:06;101238.72;;;25.56;27.47
38227;BME280;24026;49.446;8.576;2022-07-18T02:42:26;101241.75;;;25.55;27.74
38227;BME280;24026;49.446;8.576;2022-07-18T02:44:47;101237.75;;;25.52;27.69
38227;BME280;24026;49.446;8.576;2022-07-18T02:47:07;101235.03;;;25.52;27.57
38227;BME280;24026;49.446;8.576;2022-07-18T02:49:28;101232.78;;;25.54;27.93
38227;BME280;24026;49.446;8.576;2022-07-18T02:51:48;101230.72;;;25.51;27.80
38227;BME280;24026;49.446;8.576;2022-07-18T02:54:08;101230.53;;;25.47;27.76
38227;BME280;24026;49.446;8.576;2022-07-18T02:56:28;101225.94;;;25.48;27.80
38227;BME280;24026;49.446;8.576;2022-07-18T02:58:49;101234.09;;;25.48;27.90
38227;BME280;24026;49.446;8.576;2022-07-18T03:01:09;101234.72;;;25.45;27.89
38227;BME280;24026;49.446;8.576;2022-07-18T03:03:29;101226.56;;;25.45;27.90
38227;BME280;24026;49.446;8.576;2022-07-18T03:05:50;101232.00;;;25.45;28.04
38227;BME280;24026;49.446;8.576;2022-07-18T03:08:10;101229.28;;;25.45;27.85
38227;BME280;24026;49.446;8.576;2022-07-18T03:10:30;101227.19;;;25.42;27.90
38227;BME280;24026;49.446;8.576;2022-07-18T03:12:50;101229.91;;;25.42;27.98
38227;BME280;24026;49.446;8.576;2022-07-18T03:15:11;101235.69;;;25.40;28.07
38227;BME280;24026;49.446;8.576;2022-07-18T03:17:31;101227.53;;;25.40;27.90
38227;BME280;24026;49.446;8.576;2022-07-18T03:19:51;101227.84;;;25.39;27.99
38227;BME280;24026;49.446;8.576;2022-07-18T03:22:11;101216.97;;;25.39;27.98
38227;BME280;24026;49.446;8.576;2022-07-18T03:24:32;101224.66;;;25.37;27.95
38227;BME280;24026;49.446;8.576;2022-07-18T03:26:52;101220.31;;;25.36;28.00
38227;BME280;24026;49.446;8.576;2022-07-18T03:29:12;101222.25;;;25.35;28.01
38227;BME280;24026;49.446;8.576;2022-07-18T03:31:32;101218.75;;;25.35;28.14
38227;BME280;24026;49.446;8.576;2022-07-18T03:33:53;101220.63;;;25.34;28.09
38227;BME280;24026;49.446;8.576;2022-07-18T03:36:13;101217.44;;;25.32;28.06
38227;BME280;24026;49.446;8.576;2022-07-18T03:38:33;101215.38;;;25.29;28.15
38227;BME280;24026;49.446;8.576;2022-07-18T03:40:55;101223.22;;;25.30;28.13
38227;BME280;24026;49.446;8.576;2022-07-18T03:43:16;101218.91;;;25.29;28.22
38227;BME280;24026;49.446;8.576;2022-07-18T03:45:36;101226.06;;;25.25;28.06
38227;BME280;24026;49.446;8.576;2022-07-18T03:47:56;101229.28;;;25.27;28.21
38227;BME280;24026;49.446;8.576;2022-07-18T03:50:16;101235.00;;;25.26;28.20
38227;BME280;24026;49.446;8.576;2022-07-18T03:52:37;101231.81;;;25.24;28.27
38227;BME280;24026;49.446;8.576;2022-07-18T03:54:57;101228.78;;;25.25;28.12
38227;BME280;24026;49.446;8.576;2022-07-18T03:57:21;101237.25;;;25.24;28.33
38227;BME280;24026;49.446;8.576;2022-07-18T03:59:41;101236.78;;;25.22;28.43
38227;BME280;24026;49.446;8.576;2022-07-18T04:02:02;101233.28;;;25.21;28.42
38227;BME280;24026;49.446;8.576;2022-07-18T04:04:22;101230.06;;;25.19;28.27
38227;BME280;24026;49.446;8.576;2022-07-18T04:06:42;101233.59;;;25.20;28.43
38227;BME280;24026;49.446;8.576;2022-07-18T04:09:03;101231.97;;;25.19;28.40
38227;BME280;24026;49.446;8.576;2022-07-18T04:11:23;101235.50;;;25.19;28.48
38227;BME280;24026;49.446;8.576;2022-07-18T04:13:46;101240.94;;;25.19;28.41
38227;BME280;24026;49.446;8.576;2022-07-18T04:16:06;101243.19;;;25.17;28.30
38227;BME280;24026;49.446;8.576;2022-07-18T04:18:27;101243.50;;;25.15;28.47
38227;BME280;24026;49.446;8.576;2022-07-18T04:20:47;101236.94;;;25.17;28.40
38227;BME280;24026;49.446;8.576;2022-07-18T04:23:08;101236.16;;;25.16;28.44
38227;BME280;24026;49.446;8.576;2022-07-18T04:25:32;101241.59;;;25.16;28.28
38227;BME280;24026;49.446;8.576;2022-07-18T04:27:54;101243.19;;;25.17;28.58
38227;BME280;24026;49.446;8.576;2022-07-18T04:30:15;101244.63;;;25.14;28.48
38227;BME280;24026;49.446;8.576;2022-07-18T04:32:36;101241.28;;;25.18;28.57
38227;BME280;24026;49.446;8.576;2022-07-18T04:34:57;101243.19;;;25.17;28.57
38227;BME280;24026;49.446;8.576;2022-07-18T04:37:17;101247.03;;;25.16;28.55
38227;BME280;24026;49.446;8.576;2022-07-18T04:39:37;101244.00;;;25.18;28.40
38227;BME280;24026;49.446;8.576;2022-07-18T04:41:58;101245.91;;;25.17;28.57
38227;BME280;24026;49.446;8.576;2022-07-18T04:44:18;101244.31;;;25.16;28.58
38227;BME280;24026;49.446;8.576;2022-07-18T04:46:38;101238.38;;;25.14;28.56
38227;BME280;24026;49.446;8.576;2022-07-18T04:48:59;101246.22;;;25.15;28.72
38227;BME280;24026;49.446;8.576;2022-07-18T04:51:19;101239.50;;;25.13;28.78
38227;BME280;24026;49.446;8.576;2022-07-18T04:53:39;101249.56;;;25.12;29.00
38227;BME280;24026;49.446;8.576;2022-07-18T04:55:59;101253.09;;;25.04;29.89
38227;BME280;24026;49.446;8.576;2022-07-18T04:58:20;101255.63;;;25.01;29.95
38227;BME280;24026;49.446;8.576;2022-07-18T05:00:40;101253.91;;;24.96;29.81
38227;BME280;24026;49.446;8.576;2022-07-18T05:03:00;101260.75;;;24.93;30.14
38227;BME280;24026;49.446;8.576;2022-07-18T05:05:21;101252.28;;;24.86;30.30
38227;BME280;24026;49.446;8.576;2022-07-18T05:07:42;101250.97;;;24.84;30.10
38227;BME280;24026;49.446;8.576;2022-07-18T05:10:02;101253.53;;;24.71;30.78
38227;BME280;24026;49.446;8.576;2022-07-18T05:12:27;101261.59;;;24.54;31.20
38227;BME280;24026;49.446;8.576;2022-07-18T05:14:49;101259.25;;;23.90;32.12
38227;BME280;24026;49.446;8.576;2022-07-18T05:17:09;101259.53;;;24.11;31.82
38227;BME280;24026;49.446;8.576;2022-07-18T05:19:29;101260.59;;;24.01;32.08
38227;BME280;24026;49.446;8.576;2022-07-18T05:21:50;101260.34;;;24.20;31.78
38227;BME280;24026;49.446;8.576;2022-07-18T05:24:10;101261.91;;;24.12;31.74
38227;BME280;24026;49.446;8.576;2022-07-18T05:26:31;101258.09;;;24.13;32.09
38227;BME280;24026;49.446;8.576;2022-07-18T05:28:51;101270.06;;;24.12;32.42
38227;BME280;24026;49.446;8.576;2022-07-18T05:31:12;101264.81;;;24.16;32.35
38227;BME280;24026;49.446;8.576;2022-07-18T05:33:32;101268.38;;;24.25;32.18
38227;BME280;24026;49.446;8.576;2022-07-18T05:35:52;101267.75;;;24.28;32.36
38227;BME280;24026;49.446;8.576;2022-07-18T05:38:13;101274.13;;;24.32;32.20
38227;BME280;24026;49.446;8.576;2022-07-18T05:40:35;101268.53;;;24.29;32.67
38227;BME280;24026;49.446;8.576;2022-07-18T05:42:55;101273.16;;;24.28;32.67
38227;BME280;24026;49.446;8.576;2022-07-18T05:45:16;101270.16;;;24.30;32.58
38227;BME280;24026;49.446;8.576;2022-07-18T05:47:36;101274.59;;;24.26;32.85
38227;BME280;24026;49.446;8.576;2022-07-18T05:50:03;101273.16;;;24.28;32.62
38227;BME280;24026;49.446;8.576;2022-07-18T05:52:24;101275.84;;;24.19;33.07
38227;BME280;24026;49.446;8.576;2022-07-18T05:54:45;101267.91;;;24.32;32.64
38227;BME280;24026;49.446;8.576;2022-07-18T05:57:05;101264.88;;;24.33;32.54
38227;BME280;24026;49.446;8.576;2022-07-18T05:59:26;101262.94;;;24.25;32.54
38227;BME280;24026;49.446;8.576;2022-07-18T06:01:46;101264.53;;;24.26;32.44
38227;BME280;24026;49.446;8.576;2022-07-18T06:04:07;101257.50;;;24.25;32.64
38227;BME280;24026;49.446;8.576;2022-07-18T06:06:27;101253.38;;;24.28;32.45
38227;BME280;24026;49.446;8.576;2022-07-18T06:08:47;101263.28;;;24.32;32.21
38227;BME280;24026;49.446;8.576;2022-07-18T06:11:08;101257.31;;;24.21;32.02
38227;BME280;24026;49.446;8.576;2022-07-18T06:13:29;101253.13;;;24.15;31.98
38227;BME280;24026;49.446;8.576;2022-07-18T06:15:50;101252.69;;;24.22;31.62
38227;BME280;24026;49.446;8.576;2022-07-18T06:18:10;101249.50;;;24.20;31.75
38227;BME280;24026;49.446;8.576;2022-07-18T06:20:30;101250.59;;;24.19;31.61
38227;BME280;24026;49.446;8.576;2022-07-18T06:22:50;101257.66;;;24.29;31.21
38227;BME280;24026;49.446;8.576;2022-07-18T06:25:11;101255.56;;;24.26;31.54
38227;BME280;24026;49.446;8.576;2022-07-18T06:27:31;101247.25;;;24.22;31.49
38227;BME280;24026;49.446;8.576;2022-07-18T06:29:51;101251.09;;;24.21;31.49
38227;BME280;24026;49.446;8.576;2022-07-18T06:32:12;101243.59;;;24.18;31.59
38227;BME280;24026;49.446;8.576;2022-07-18T06:34:32;101246.94;;;24.23;31.32
38227;BME280;24026;49.446;8.576;2022-07-18T06:36:52;101249.38;;;24.34;31.56
38227;BME280;24026;49.446;8.576;2022-07-18T06:39:13;101246.66;;;24.34;31.63
38227;BME280;24026;49.446;8.576;2022-07-18T06:41:37;101244.47;;;24.36;31.33
38227;BME280;24026;49.446;8.576;2022-07-18T06:43:58;101251.31;;;24.42;31.33
38227;BME280;24026;49.446;8.576;2022-07-18T06:46:18;101250.38;;;24.47;31.41
38227;BME280;24026;49.446;8.576;2022-07-18T06:48:39;101247.38;;;24.48;31.42
38227;BME280;24026;49.446;8.576;2022-07-18T06:51:00;101247.53;;;24.52;31.49
38227;BME280;24026;49.446;8.576;2022-07-18T06:53:22;101251.03;;;24.52;31.81
38227;BME280;24026;49.446;8.576;2022-07-18T06:55:42;101252.16;;;24.51;31.92
38227;BME280;24026;49.446;8.576;2022-07-18T06:58:02;101241.50;;;24.55;31.81
38227;BME280;24026;49.446;8.576;2022-07-18T07:00:22;101248.16;;;24.49;31.79
38227;BME280;24026;49.446;8.576;2022-07-18T07:02:44;101248.31;;;24.44;31.74
38227;BME280;24026;49.446;8.576;2022-07-18T07:05:04;101247.69;;;24.47;31.78
38227;BME280;24026;49.446;8.576;2022-07-18T07:07:25;101253.75;;;24.52;31.78
38227;BME280;24026;49.446;8.576;2022-07-18T07:09:45;101247.72;;;24.55;31.77
38227;BME280;24026;49.446;8.576;2022-07-18T07:12:05;101247.41;;;24.57;31.63
38227;BME280;24026;49.446;8.576;2022-07-18T07:14:26;101254.47;;;24.58;31.66
38227;BME280;24026;49.446;8.576;2022-07-18T07:16:46;101247.56;;;24.60;31.49
38227;BME280;24026;49.446;8.576;2022-07-18T07:19:06;101258.50;;;24.69;31.43
38227;BME280;24026;49.446;8.576;2022-07-18T07:21:27;101247.47;;;24.74;31.19
38227;BME280;24026;49.446;8.576;2022-07-18T07:23:47;101254.50;;;24.75;31.26
38227;BME280;24026;49.446;8.576;2022-07-18T07:26:07;101254.66;;;24.79;31.21
38227;BME280;24026;49.446;8.576;2022-07-18T07:28:28;101255.16;;;24.81;31.01
38227;BME280;24026;49.446;8.576;2022-07-18T07:30:48;101253.53;;;24.89;31.00
38227;BME280;24026;49.446;8.576;2022-07-18T07:33:08;101251.97;;;24.88;31.11
38227;BME280;24026;49.446;8.576;2022-07-18T07:35:29;101250.50;;;24.90;31.04
38227;BME280;24026;49.446;8.576;2022-07-18T07:37:51;101245.25;;;24.94;30.89
38227;BME280;24026;49.446;8.576;2022-07-18T07:40:12;101248.16;;;24.98;30.53
38227;BME280;24026;49.446;8.576;2022-07-18T07:42:33;101241.56;;;24.99;30.67
38227;BME280;24026;49.446;8.576;2022-07-18T07:44:54;101240.63;;;25.03;30.38
38227;BME280;24026;49.446;8.576;2022-07-18T07:47:14;101247.00;;;25.07;30.33
38227;BME280;24026;49.446;8.576;2022-07-18T07:49:35;101250.53;;;25.08;30.46
38227;BME280;24026;49.446;8.576;2022-07-18T07:51:56;101248.63;;;25.17;30.36
38227;BME280;24026;49.446;8.576;2022-07-18T07:54:17;101242.53;;;25.20;30.56
38227;BME280;24026;49.446;8.576;2022-07-18T07:56:38;101233.44;;;25.25;30.20
38227;BME280;24026;49.446;8.576;2022-07-18T07:58:59;101235.69;;;25.31;29.78
38227;BME280;24026;49.446;8.576;2022-07-18T08:01:21;101233.28;;;25.30;29.75
38227;BME280;24026;49.446;8.576;2022-07-18T08:03:41;101238.88;;;25.33;29.95
38227;BME280;24026;49.446;8.576;2022-07-18T08:06:01;101234.06;;;25.39;29.42
38227;BME280;24026;49.446;8.576;2022-07-18T08:08:22;101232.50;;;25.29;29.70
38227;BME280;24026;49.446;8.576;2022-07-18T08:10:42;101231.53;;;25.43;29.54
38227;BME280;24026;49.446;8.576;2022-07-18T08:13:03;101223.19;;;25.48;29.35
38227;BME280;24026;49.446;8.576;2022-07-18T08:15:24;101226.22;;;25.55;28.69
38227;BME280;24026;49.446;8.576;2022-07-18T08:17:44;101222.53;;;25.60;28.65
38227;BME280;24026;49.446;8.576;2022-07-18T08:20:05;101225.72;;;25.62;28.42
38227;BME280;24026;49.446;8.576;2022-07-18T08:22:26;101222.03;;;25.66;28.53
38227;BME280;24026;49.446;8.576;2022-07-18T08:24:46;101225.41;;;25.63;28.25
38227;BME280;24026;49.446;8.576;2022-07-18T08:27:06;101218.00;;;25.73;27.95
38227;BME280;24026;49.446;8.576;2022-07-18T08:29:27;101218.66;;;25.78;27.89
38227;BME280;24026;49.446;8.576;2022-07-18T08:31:47;101221.53;;;25.82;27.41
38227;BME280;24026;49.446;8.576;2022-07-18T08:34:08;101218.78;;;25.82;27.71
38227;BME280;24026;49.446;8.576;2022-07-18T08:36:28;101211.75;;;25.89;27.48
38227;BME280;24026;49.446;8.576;2022-07-18T08:38:48;101210.91;;;25.89;27.13
38227;BME280;24026;49.446;8.576;2022-07-18T08:41:09;101209.31;;;25.97;26.90
38227;BME280;24026;49.446;8.576;2022-07-18T08:43:29;101209.28;;;26.05;26.80
38227;BME280;24026;49.446;8.576;2022-07-18T08:45:51;101211.03;;;26.10;26.64
38227;BME280;24026;49.446;8.576;2022-07-18T08:48:17;101202.06;;;26.10;26.29
38227;BME280;24026;49.446;8.576;2022-07-18T08:50:38;101200.94;;;26.11;26.48
38227;BME280;24026;49.446;8.576;2022-07-18T08:52:59;101199.16;;;26.15;26.55
38227;BME280;24026;49.446;8.576;2022-07-18T08:55:19;101204.56;;;26.23;26.69
38227;BME280;24026;49.446;8.576;2022-07-18T08:57:40;101202.13;;;26.31;26.51
38227;BME280;24026;49.446;8.576;2022-07-18T09:00:06;101206.31;;;26.28;26.93
38227;BME280;24026;49.446;8.576;2022-07-18T09:02:27;101213.13;;;26.43;26.61
38227;BME280;24026;49.446;8.576;2022-07-18T09:04:47;101203.66;;;26.40;26.55
38227;BME280;24026;49.446;8.576;2022-07-18T09:07:08;101197.69;;;26.47;26.49
38227;BME280;24026;49.446;8.576;2022-07-18T09:09:29;101207.63;;;26.52;26.23
38227;BME280;24026;49.446;8.576;2022-07-18T09:11:53;101197.84;;;26.51;26.31
38227;BME280;24026;49.446;8.576;2022-07-18T09:16:59;101196.63;;;26.69;26.17
38227;BME280;24026;49.446;8.576;2022-07-18T09:19:20;101198.22;;;26.70;26.10
38227;BME280;24026;49.446;8.576;2022-07-18T09:21:40;101199.81;;;26.71;25.76
38227;BME280;24026;49.446;8.576;2022-07-18T09:24:00;101199.63;;;26.76;26.00
38227;BME280;24026;49.446;8.576;2022-07-18T09:26:37;101198.94;;;26.79;25.75
38227;BME280;24026;49.446;8.576;2022-07-18T09:28:58;101199.75;;;26.80;25.06
38227;BME280;24026;49.446;8.576;2022-07-18T09:31:22;101189.19;;;26.78;25.42
38227;BME280;24026;49.446;8.576;2022-07-18T09:33:54;101195.97;;;26.93;25.18
38227;BME280;24026;49.446;8.576;2022-07-18T09:36:14;101193.28;;;27.06;25.02
38227;BME280;24026;49.446;8.576;2022-07-18T09:38:34;101186.38;;;27.08;24.45
38227;BME280;24026;49.446;8.576;2022-07-18T09:40:56;101190.47;;;27.14;24.70
38227;BME280;24026;49.446;8.576;2022-07-18T09:43:20;101180.59;;;27.10;24.88
38227;BME280;24026;49.446;8.576;2022-07-18T09:45:45;101179.09;;;27.12;24.37
38227;BME280;24026;49.446;8.576;2022-07-18T09:48:08;101176.13;;;27.05;24.47
38227;BME280;24026;49.446;8.576;2022-07-18T09:50:33;101178.19;;;27.08;24.58
38227;BME280;24026;49.446;8.576;2022-07-18T09:52:58;101173.66;;;27.12;24.64
38227;BME280;24026;49.446;8.576;2022-07-18T09:55:19;101168.53;;;27.32;24.29
38227;BME280;24026;49.446;8.576;2022-07-18T09:57:39;101175.50;;;27.21;24.22
38227;BME280;24026;49.446;8.576;2022-07-18T09:59:59;101164.81;;;27.37;23.50
38227;BME280;24026;49.446;8.576;2022-07-18T10:02:20;101160.19;;;27.28;23.89
38227;BME280;24026;49.446;8.576;2022-07-18T10:04:41;101156.72;;;27.40;23.70
38227;BME280;24026;49.446;8.576;2022-07-18T10:07:02;101169.00;;;27.34;24.03
38227;BME280;24026;49.446;8.576;2022-07-18T10:09:22;101170.28;;;27.28;23.85
38227;BME280;24026;49.446;8.576;2022-07-18T10:11:43;101164.25;;;27.43;23.24
38227;BME280;24026;49.446;8.576;2022-07-18T10:14:04;101161.38;;;27.40;23.52
38227;BME280;24026;49.446;8.576;2022-07-18T10:16:25;101146.41;;;27.58;23.45
38227;BME280;24026;49.446;8.576;2022-07-18T10:18:45;101145.50;;;27.66;22.89
38227;BME280;24026;49.446;8.576;2022-07-18T10:21:10;101150.66;;;27.80;22.57
38227;BME280;24026;49.446;8.576;2022-07-18T10:23:35;101151.28;;;27.65;22.89
38227;BME280;24026;49.446;8.576;2022-07-18T10:26:05;101150.75;;;27.71;22.66
38227;BME280;24026;49.446;8.576;2022-07-18T10:28:28;101154.41;;;27.76;22.20
38227;BME280;24026;49.446;8.576;2022-07-18T10:30:48;101151.09;;;27.70;22.33
38227;BME280;24026;49.446;8.576;2022-07-18T10:35:57;101153.50;;;27.96;21.82
38227;BME280;24026;49.446;8.576;2022-07-18T10:38:21;101143.81;;;27.86;22.12
38227;BME280;24026;49.446;8.576;2022-07-18T10:41:00;101140.84;;;27.91;21.67
38227;BME280;24026;49.446;8.576;2022-07-18T10:45:48;101144.41;;;28.04;21.63
38227;BME280;24026;49.446;8.576;2022-07-18T10:51:01;101146.91;;;28.09;21.83
38227;BME280;24026;49.446;8.576;2022-07-18T10:53:21;101140.75;;;28.13;21.45
38227;BME280;24026;49.446;8.576;2022-07-18T10:55:44;101140.41;;;28.26;21.55
38227;BME280;24026;49.446;8.576;2022-07-18T11:00:36;101133.66;;;28.36;21.22
38227;BME280;24026;49.446;8.576;2022-07-18T11:08:02;101127.53;;;28.39;21.13
38227;BME280;24026;49.446;8.576;2022-07-18T11:11:25;101125.59;;;28.27;21.60
38227;BME280;24026;49.446;8.576;2022-07-18T11:18:12;101131.63;;;28.33;21.19
38227;BME280;24026;49.446;8.576;2022-07-18T11:20:41;101127.84;;;28.50;20.98
38227;BME280;24026;49.446;8.576;2022-07-18T11:23:23;101124.53;;;28.44;21.07
38227;BME280;24026;49.446;8.576;2022-07-18T11:25:44;101116.53;;;28.52;21.26
38227;BME280;24026;49.446;8.576;2022-07-18T11:28:08;101120.84;;;28.65;21.00
38227;BME280;24026;49.446;8.576;2022-07-18T11:30:30;101114.59;;;28.64;20.59
38227;BME280;24026;49.446;8.576;2022-07-18T11:32:52;101119.19;;;28.60;20.65
38227;BME280;24026;49.446;8.576;2022-07-18T11:35:14;101116.75;;;28.71;20.68
38227;BME280;24026;49.446;8.576;2022-07-18T11:37:36;101100.31;;;28.83;20.44
38227;BME280;24026;49.446;8.576;2022-07-18T11:40:05;101101.34;;;28.79;20.63
38227;BME280;24026;49.446;8.576;2022-07-18T11:42:38;101104.78;;;28.76;20.25
38227;BME280;24026;49.446;8.576;2022-07-18T11:44:59;101102.03;;;28.76;20.42
38227;BME280;24026;49.446;8.576;2022-07-18T11:47:22;101088.38;;;28.92;20.36
38227;BME280;24026;49.446;8.576;2022-07-18T11:49:54;101088.50;;;28.95;19.97
38227;BME280;24026;49.446;8.576;2022-07-18T11:52:18;101088.69;;;29.02;20.34
38227;BME280;24026;49.446;8.576;2022-07-18T11:54:38;101084.25;;;28.82;20.50
38227;BME280;24026;49.446;8.576;2022-07-18T11:56:59;101080.91;;;28.89;20.13
38227;BME280;24026;49.446;8.576;2022-07-18T11:59:41;101078.00;;;28.97;20.47
38227;BME280;24026;49.446;8.576;2022-07-18T12:02:06;101078.59;;;28.91;20.18
38227;BME280;24026;49.446;8.576;2022-07-18T12:04:28;101079.69;;;29.02;20.28
38227;BME280;24026;49.446;8.576;2022-07-18T12:07:19;101075.78;;;29.03;19.95
38227;BME280;24026;49.446;8.576;2022-07-18T12:09:40;101067.06;;;29.13;19.96
38227;BME280;24026;49.446;8.576;2022-07-18T12:12:08;101069.97;;;29.05;20.51
38227;BME280;24026;49.446;8.576;2022-07-18T12:14:29;101064.91;;;29.19;19.90
38227;BME280;24026;49.446;8.576;2022-07-18T12:16:57;101066.13;;;29.22;20.22
38227;BME280;24026;49.446;8.576;2022-07-18T12:19:21;101069.06;;;29.29;19.97
38227;BME280;24026;49.446;8.576;2022-07-18T12:22:09;101063.81;;;29.08;19.93
38227;BME280;24026;49.446;8.576;2022-07-18T12:24:50;101065.50;;;29.12;20.14
38227;BME280;24026;49.446;8.576;2022-07-18T12:32:55;101050.59;;;29.42;19.87
38227;BME280;24026;49.446;8.576;2022-07-18T12:35:27;101059.19;;;29.24;19.81
38227;BME280;24026;49.446;8.576;2022-07-18T12:38:13;101050.25;;;29.27;19.76
38227;BME280;24026;49.446;8.576;2022-07-18T12:43:14;101051.22;;;29.35;19.36
38227;BME280;24026;49.446;8.576;2022-07-18T12:45:36;101048.31;;;29.44;19.89
38227;BME280;24026;49.446;8.576;2022-07-18T12:47:56;101049.97;;;29.48;19.71
38227;BME280;24026;49.446;8.576;2022-07-18T12:50:17;101038.84;;;29.57;19.36
38227;BME280;24026;49.446;8.576;2022-07-18T12:52:37;101040.91;;;29.44;19.54